sensor_id;sensor_type;location;lat;lon;timestamp;P1;durP1;ratioP1;P2;durP2;ratioP2
33413;SDS011;60055;41.884;12.534;2023-03-05T00:00:48;30.17;;;15.68;;
33413;SDS011;60055;41.884;12.534;2023-03-05T00:03:14;31.02;;;16.52;;
33413;SDS011;60055;41.884;12.534;2023-03-05T00:05:39;36.20;;;16.63;;
33413;SDS011;60055;41.884;12.534;2023-03-05T00:08:05;31.60;;;15.77;;
33413;SDS011;60055;41.884;12.534;2023-03-05T00:10:31;29.98;;;16.45;;
33413;SDS011;60055;41.884;12.534;2023-03-05T00:12:56;29.10;;;15.55;;
33413;SDS011;60055;41.884;12.534;2023-03-05T00:15:25;31.48;;;15.13;;
33413;SDS011;60055;41.884;12.534;2023-03-05T00:17:51;29.23;;;15.23;;
33413;SDS011;60055;41.884;12.534;2023-03-05T00:20:17;28.17;;;15.02;;
33413;SDS011;60055;41.884;12.534;2023-03-05T00:22:42;32.80;;;15.05;;
33413;SDS011;60055;41.884;12.534;2023-03-05T00:25:08;32.35;;;15.75;;
33413;SDS011;60055;41.884;12.534;2023-03-05T00:27:34;30.13;;;15.73;;
33413;SDS011;60055;41.884;12.534;2023-03-05T00:29:59;31.80;;;15.10;;
33413;SDS011;60055;41.884;12.534;2023-03-05T00:32:25;32.17;;;15.57;;
33413;SDS011;60055;41.884;12.534;2023-03-05T00:34:51;27.75;;;14.50;;
33413;SDS011;60055;41.884;12.534;2023-03-05T00:37:16;30.17;;;14.82;;
33413;SDS011;60055;41.884;12.534;2023-03-05T00:39:42;28.85;;;15.73;;
33413;SDS011;60055;41.884;12.534;2023-03-05T00:42:07;30.27;;;15.20;;
33413;SDS011;60055;41.884;12.534;2023-03-05T00:44:34;28.33;;;15.45;;
33413;SDS011;60055;41.884;12.534;2023-03-05T01:18:33;33.15;;;16.58;;
33413;SDS011;60055;41.884;12.534;2023-03-05T01:20:59;27.55;;;15.73;;
33413;SDS011;60055;41.884;12.534;2023-03-05T01:23:25;26.10;;;15.48;;
33413;SDS011;60055;41.884;12.534;2023-03-05T01:25:54;34.85;;;15.00;;
33413;SDS011;60055;41.884;12.534;2023-03-05T01:28:21;28.77;;;15.40;;
33413;SDS011;60055;41.884;12.534;2023-03-05T01:30:47;29.85;;;15.88;;
33413;SDS011;60055;41.884;12.534;2023-03-05T01:33:12;27.40;;;15.50;;
33413;SDS011;60055;41.884;12.534;2023-03-05T01:35:38;34.00;;;15.82;;
33413;SDS011;60055;41.884;12.534;2023-03-05T01:38:05;30.92;;;14.88;;
33413;SDS011;60055;41.884;12.534;2023-03-05T01:40:31;28.85;;;15.32;;
33413;SDS011;60055;41.884;12.534;2023-03-05T01:43:00;30.63;;;15.38;;
33413;SDS011;60055;41.884;12.534;2023-03-05T01:45:32;29.95;;;15.77;;
33413;SDS011;60055;41.884;12.534;2023-03-05T01:47:59;32.50;;;16.58;;
33413;SDS011;60055;41.884;12.534;2023-03-05T01:50:25;29.98;;;16.98;;
33413;SDS011;60055;41.884;12.534;2023-03-05T01:52:52;32.70;;;16.65;;
33413;SDS011;60055;41.884;12.534;2023-03-05T01:55:30;30.13;;;17.42;;
33413;SDS011;60055;41.884;12.534;2023-03-05T01:57:59;35.38;;;17.25;;
33413;SDS011;60055;41.884;12.534;2023-03-05T02:00:29;32.00;;;18.35;;
33413;SDS011;60055;41.884;12.534;2023-03-05T02:03:00;31.20;;;18.20;;
33413;SDS011;60055;41.884;12.534;2023-03-05T02:05:30;30.33;;;18.42;;
33413;SDS011;60055;41.884;12.534;2023-03-05T02:07:57;29.52;;;18.20;;
33413;SDS011;60055;41.884;12.534;2023-03-05T02:10:26;38.35;;;19.25;;
33413;SDS011;60055;41.884;12.534;2023-03-05T02:12:55;33.70;;;20.55;;
33413;SDS011;60055;41.884;12.534;2023-03-05T02:15:24;34.60;;;19.55;;
33413;SDS011;60055;41.884;12.534;2023-03-05T02:17:50;32.72;;;19.05;;
33413;SDS011;60055;41.884;12.534;2023-03-05T02:20:18;35.10;;;19.23;;
33413;SDS011;60055;41.884;12.534;2023-03-05T02:22:51;30.15;;;18.65;;
33413;SDS011;60055;41.884;12.534;2023-03-05T02:25:24;29.88;;;18.73;;
33413;SDS011;60055;41.884;12.534;2023-03-05T02:30:29;30.38;;;18.77;;
33413;SDS011;60055;41.884;12.534;2023-03-05T02:32:56;31.35;;;19.13;;
33413;SDS011;60055;41.884;12.534;2023-03-05T02:35:22;40.03;;;19.20;;
33413;SDS011;60055;41.884;12.534;2023-03-05T02:37:48;30.23;;;17.88;;
33413;SDS011;60055;41.884;12.534;2023-03-05T02:40:14;36.33;;;18.73;;
33413;SDS011;60055;41.884;12.534;2023-03-05T02:42:40;37.00;;;18.80;;
33413;SDS011;60055;41.884;12.534;2023-03-05T02:45:06;32.60;;;18.20;;
33413;SDS011;60055;41.884;12.534;2023-03-05T02:47:32;29.67;;;17.60;;
33413;SDS011;60055;41.884;12.534;2023-03-05T02:49:58;36.47;;;18.50;;
33413;SDS011;60055;41.884;12.534;2023-03-05T02:52:24;31.63;;;17.33;;
33413;SDS011;60055;41.884;12.534;2023-03-05T02:54:50;26.20;;;16.05;;
33413;SDS011;60055;41.884;12.534;2023-03-05T02:57:17;28.33;;;15.23;;
33413;SDS011;60055;41.884;12.534;2023-03-05T02:59:43;27.10;;;15.55;;
33413;SDS011;60055;41.884;12.534;2023-03-05T03:02:10;32.25;;;15.27;;
33413;SDS011;60055;41.884;12.534;2023-03-05T03:04:36;26.73;;;14.73;;
33413;SDS011;60055;41.884;12.534;2023-03-05T03:07:01;25.75;;;14.05;;
33413;SDS011;60055;41.884;12.534;2023-03-05T03:09:27;29.83;;;15.25;;
33413;SDS011;60055;41.884;12.534;2023-03-05T03:11:53;29.20;;;15.23;;
33413;SDS011;60055;41.884;12.534;2023-03-05T03:14:18;31.08;;;15.48;;
33413;SDS011;60055;41.884;12.534;2023-03-05T03:16:45;33.47;;;14.45;;
33413;SDS011;60055;41.884;12.534;2023-03-05T03:19:10;29.30;;;15.27;;
33413;SDS011;60055;41.884;12.534;2023-03-05T03:21:36;25.30;;;14.85;;
33413;SDS011;60055;41.884;12.534;2023-03-05T03:24:01;30.92;;;15.50;;
33413;SDS011;60055;41.884;12.534;2023-03-05T03:26:27;28.63;;;15.30;;
33413;SDS011;60055;41.884;12.534;2023-03-05T03:28:54;29.58;;;15.85;;
33413;SDS011;60055;41.884;12.534;2023-03-05T03:31:20;27.63;;;14.70;;
33413;SDS011;60055;41.884;12.534;2023-03-05T03:33:46;29.17;;;14.82;;
33413;SDS011;60055;41.884;12.534;2023-03-05T03:36:11;27.23;;;14.07;;
33413;SDS011;60055;41.884;12.534;2023-03-05T03:38:37;29.05;;;15.10;;
33413;SDS011;60055;41.884;12.534;2023-03-05T03:41:06;29.13;;;14.50;;
33413;SDS011;60055;41.884;12.534;2023-03-05T03:43:33;30.05;;;15.82;;
33413;SDS011;60055;41.884;12.534;2023-03-05T03:45:59;27.92;;;15.93;;
33413;SDS011;60055;41.884;12.534;2023-03-05T03:48:27;28.17;;;15.93;;
33413;SDS011;60055;41.884;12.534;2023-03-05T03:50:52;30.20;;;15.45;;
33413;SDS011;60055;41.884;12.534;2023-03-05T03:53:18;27.27;;;15.85;;
33413;SDS011;60055;41.884;12.534;2023-03-05T03:55:43;31.42;;;15.18;;
33413;SDS011;60055;41.884;12.534;2023-03-05T03:58:10;31.65;;;15.65;;
33413;SDS011;60055;41.884;12.534;2023-03-05T04:00:39;29.75;;;15.68;;
33413;SDS011;60055;41.884;12.534;2023-03-05T04:03:05;32.03;;;15.32;;
33413;SDS011;60055;41.884;12.534;2023-03-05T04:05:31;27.88;;;15.68;;
33413;SDS011;60055;41.884;12.534;2023-03-05T04:07:57;35.80;;;15.70;;
33413;SDS011;60055;41.884;12.534;2023-03-05T04:10:23;28.20;;;14.93;;
33413;SDS011;60055;41.884;12.534;2023-03-05T04:12:49;25.73;;;13.85;;
33413;SDS011;60055;41.884;12.534;2023-03-05T04:15:15;26.40;;;14.50;;
33413;SDS011;60055;41.884;12.534;2023-03-05T04:17:41;28.77;;;14.80;;
33413;SDS011;60055;41.884;12.534;2023-03-05T04:20:06;31.23;;;15.65;;
33413;SDS011;60055;41.884;12.534;2023-03-05T04:22:34;28.60;;;14.40;;
33413;SDS011;60055;41.884;12.534;2023-03-05T04:25:01;25.75;;;13.77;;
33413;SDS011;60055;41.884;12.534;2023-03-05T04:27:31;27.00;;;14.60;;
33413;SDS011;60055;41.884;12.534;2023-03-05T04:29:58;28.13;;;14.90;;
33413;SDS011;60055;41.884;12.534;2023-03-05T04:32:24;26.27;;;14.30;;
33413;SDS011;60055;41.884;12.534;2023-03-05T04:34:54;23.92;;;14.18;;
33413;SDS011;60055;41.884;12.534;2023-03-05T04:37:20;26.98;;;15.07;;
33413;SDS011;60055;41.884;12.534;2023-03-05T04:39:46;27.55;;;14.50;;
33413;SDS011;60055;41.884;12.534;2023-03-05T04:42:12;26.60;;;14.32;;
33413;SDS011;60055;41.884;12.534;2023-03-05T04:44:38;25.13;;;13.73;;
33413;SDS011;60055;41.884;12.534;2023-03-05T04:47:04;25.70;;;14.35;;
33413;SDS011;60055;41.884;12.534;2023-03-05T04:49:29;27.58;;;13.95;;
33413;SDS011;60055;41.884;12.534;2023-03-05T04:51:55;26.52;;;13.45;;
33413;SDS011;60055;41.884;12.534;2023-03-05T04:54:22;25.40;;;14.60;;
33413;SDS011;60055;41.884;12.534;2023-03-05T04:56:48;27.55;;;14.55;;
33413;SDS011;60055;41.884;12.534;2023-03-05T04:59:13;24.42;;;14.13;;
33413;SDS011;60055;41.884;12.534;2023-03-05T05:01:39;32.58;;;14.60;;
33413;SDS011;60055;41.884;12.534;2023-03-05T05:04:05;27.80;;;14.35;;
33413;SDS011;60055;41.884;12.534;2023-03-05T05:06:30;27.42;;;14.80;;
33413;SDS011;60055;41.884;12.534;2023-03-05T05:08:56;26.55;;;14.70;;
33413;SDS011;60055;41.884;12.534;2023-03-05T05:11:22;32.42;;;15.73;;
33413;SDS011;60055;41.884;12.534;2023-03-05T05:13:47;31.50;;;14.18;;
33413;SDS011;60055;41.884;12.534;2023-03-05T05:16:13;26.38;;;14.43;;
33413;SDS011;60055;41.884;12.534;2023-03-05T05:18:40;26.33;;;14.20;;
33413;SDS011;60055;41.884;12.534;2023-03-05T05:21:06;26.10;;;13.63;;
33413;SDS011;60055;41.884;12.534;2023-03-05T05:23:33;30.23;;;14.15;;
33413;SDS011;60055;41.884;12.534;2023-03-05T05:25:59;24.98;;;14.52;;
33413;SDS011;60055;41.884;12.534;2023-03-05T05:28:26;25.67;;;14.93;;
33413;SDS011;60055;41.884;12.534;2023-03-05T05:30:52;29.98;;;14.88;;
33413;SDS011;60055;41.884;12.534;2023-03-05T05:33:18;26.45;;;14.65;;
33413;SDS011;60055;41.884;12.534;2023-03-05T05:35:44;24.48;;;14.25;;
33413;SDS011;60055;41.884;12.534;2023-03-05T05:38:10;24.58;;;13.93;;
33413;SDS011;60055;41.884;12.534;2023-03-05T05:40:35;28.67;;;14.20;;
33413;SDS011;60055;41.884;12.534;2023-03-05T05:43:01;26.55;;;14.68;;
33413;SDS011;60055;41.884;12.534;2023-03-05T05:45:27;25.75;;;14.70;;
33413;SDS011;60055;41.884;12.534;2023-03-05T05:47:52;26.25;;;14.10;;
33413;SDS011;60055;41.884;12.534;2023-03-05T05:50:18;28.92;;;13.98;;
33413;SDS011;60055;41.884;12.534;2023-03-05T05:52:44;31.73;;;14.23;;
33413;SDS011;60055;41.884;12.534;2023-03-05T05:55:11;27.38;;;14.15;;
33413;SDS011;60055;41.884;12.534;2023-03-05T05:57:37;24.35;;;14.13;;
33413;SDS011;60055;41.884;12.534;2023-03-05T06:00:06;30.58;;;14.30;;
33413;SDS011;60055;41.884;12.534;2023-03-05T06:02:36;29.02;;;13.90;;
33413;SDS011;60055;41.884;12.534;2023-03-05T06:05:06;24.25;;;13.95;;
33413;SDS011;60055;41.884;12.534;2023-03-05T06:07:34;26.40;;;13.93;;
33413;SDS011;60055;41.884;12.534;2023-03-05T06:10:00;27.90;;;14.38;;
33413;SDS011;60055;41.884;12.534;2023-03-05T06:12:26;26.30;;;13.73;;
33413;SDS011;60055;41.884;12.534;2023-03-05T06:14:51;24.20;;;14.07;;
33413;SDS011;60055;41.884;12.534;2023-03-05T06:17:18;24.00;;;13.90;;
33413;SDS011;60055;41.884;12.534;2023-03-05T06:19:43;27.40;;;15.07;;
33413;SDS011;60055;41.884;12.534;2023-03-05T06:22:09;28.58;;;14.38;;
33413;SDS011;60055;41.884;12.534;2023-03-05T06:24:35;25.02;;;14.15;;
33413;SDS011;60055;41.884;12.534;2023-03-05T06:27:02;31.08;;;14.80;;
33413;SDS011;60055;41.884;12.534;2023-03-05T06:29:28;27.85;;;15.27;;
33413;SDS011;60055;41.884;12.534;2023-03-05T06:31:54;30.85;;;14.27;;
33413;SDS011;60055;41.884;12.534;2023-03-05T06:34:19;31.80;;;13.90;;
33413;SDS011;60055;41.884;12.534;2023-03-05T06:36:46;24.50;;;15.13;;
33413;SDS011;60055;41.884;12.534;2023-03-05T06:39:12;26.33;;;14.77;;
33413;SDS011;60055;41.884;12.534;2023-03-05T06:41:37;25.85;;;15.27;;
33413;SDS011;60055;41.884;12.534;2023-03-05T06:44:03;31.63;;;15.27;;
33413;SDS011;60055;41.884;12.534;2023-03-05T06:46:30;31.33;;;15.40;;
33413;SDS011;60055;41.884;12.534;2023-03-05T06:48:59;31.05;;;15.15;;
33413;SDS011;60055;41.884;12.534;2023-03-05T06:51:28;26.75;;;15.38;;
33413;SDS011;60055;41.884;12.534;2023-03-05T06:53:58;27.92;;;15.18;;
33413;SDS011;60055;41.884;12.534;2023-03-05T06:56:25;26.05;;;15.30;;
33413;SDS011;60055;41.884;12.534;2023-03-05T06:58:51;24.17;;;15.68;;
33413;SDS011;60055;41.884;12.534;2023-03-05T07:01:18;29.63;;;15.27;;
33413;SDS011;60055;41.884;12.534;2023-03-05T07:03:45;27.73;;;15.27;;
33413;SDS011;60055;41.884;12.534;2023-03-05T07:06:15;26.83;;;14.48;;
33413;SDS011;60055;41.884;12.534;2023-03-05T07:08:41;26.08;;;16.02;;
33413;SDS011;60055;41.884;12.534;2023-03-05T07:11:09;30.88;;;15.50;;
33413;SDS011;60055;41.884;12.534;2023-03-05T07:13:36;29.85;;;14.70;;
33413;SDS011;60055;41.884;12.534;2023-03-05T07:16:06;31.95;;;15.02;;
33413;SDS011;60055;41.884;12.534;2023-03-05T07:18:33;30.38;;;14.88;;
33413;SDS011;60055;41.884;12.534;2023-03-05T07:21:01;33.97;;;15.30;;
33413;SDS011;60055;41.884;12.534;2023-03-05T07:23:31;30.48;;;15.70;;
33413;SDS011;60055;41.884;12.534;2023-03-05T07:25:59;29.25;;;15.43;;
33413;SDS011;60055;41.884;12.534;2023-03-05T07:28:26;25.00;;;14.75;;
33413;SDS011;60055;41.884;12.534;2023-03-05T07:30:55;28.95;;;14.60;;
33413;SDS011;60055;41.884;12.534;2023-03-05T07:33:23;24.90;;;14.80;;
33413;SDS011;60055;41.884;12.534;2023-03-05T07:35:50;32.38;;;15.27;;
33413;SDS011;60055;41.884;12.534;2023-03-05T07:38:16;27.10;;;14.55;;
33413;SDS011;60055;41.884;12.534;2023-03-05T07:40:41;25.40;;;15.27;;
33413;SDS011;60055;41.884;12.534;2023-03-05T07:43:07;32.47;;;15.48;;
33413;SDS011;60055;41.884;12.534;2023-03-05T07:45:33;27.73;;;15.10;;
33413;SDS011;60055;41.884;12.534;2023-03-05T07:47:58;23.33;;;14.77;;
33413;SDS011;60055;41.884;12.534;2023-03-05T07:50:24;31.67;;;15.80;;
33413;SDS011;60055;41.884;12.534;2023-03-05T07:52:51;21.60;;;13.90;;
33413;SDS011;60055;41.884;12.534;2023-03-05T07:55:17;29.40;;;14.07;;
33413;SDS011;60055;41.884;12.534;2023-03-05T07:57:42;23.70;;;13.32;;
33413;SDS011;60055;41.884;12.534;2023-03-05T08:00:08;23.77;;;13.90;;
33413;SDS011;60055;41.884;12.534;2023-03-05T08:02:34;24.08;;;13.48;;
33413;SDS011;60055;41.884;12.534;2023-03-05T08:05:00;24.52;;;13.70;;
33413;SDS011;60055;41.884;12.534;2023-03-05T08:07:26;23.27;;;13.50;;
33413;SDS011;60055;41.884;12.534;2023-03-05T08:09:51;25.63;;;13.90;;
33413;SDS011;60055;41.884;12.534;2023-03-05T08:12:17;26.52;;;14.65;;
33413;SDS011;60055;41.884;12.534;2023-03-05T08:14:43;28.15;;;14.23;;
33413;SDS011;60055;41.884;12.534;2023-03-05T08:17:08;28.00;;;14.02;;
33413;SDS011;60055;41.884;12.534;2023-03-05T08:19:34;26.35;;;13.70;;
33413;SDS011;60055;41.884;12.534;2023-03-05T08:21:59;26.10;;;13.73;;
33413;SDS011;60055;41.884;12.534;2023-03-05T08:24:25;25.75;;;13.30;;
33413;SDS011;60055;41.884;12.534;2023-03-05T08:26:54;24.40;;;14.07;;
33413;SDS011;60055;41.884;12.534;2023-03-05T08:29:21;23.70;;;13.05;;
33413;SDS011;60055;41.884;12.534;2023-03-05T08:31:47;23.08;;;12.23;;
33413;SDS011;60055;41.884;12.534;2023-03-05T08:34:13;21.85;;;12.25;;
33413;SDS011;60055;41.884;12.534;2023-03-05T08:36:39;23.05;;;12.98;;
33413;SDS011;60055;41.884;12.534;2023-03-05T08:39:05;22.60;;;12.68;;
33413;SDS011;60055;41.884;12.534;2023-03-05T08:41:32;22.08;;;12.25;;
33413;SDS011;60055;41.884;12.534;2023-03-05T08:43:58;20.13;;;12.57;;
33413;SDS011;60055;41.884;12.534;2023-03-05T08:46:23;21.92;;;11.40;;
33413;SDS011;60055;41.884;12.534;2023-03-05T08:48:49;20.90;;;12.25;;
33413;SDS011;60055;41.884;12.534;2023-03-05T08:51:17;22.35;;;11.88;;
33413;SDS011;60055;41.884;12.534;2023-03-05T08:53:44;19.52;;;11.60;;
33413;SDS011;60055;41.884;12.534;2023-03-05T08:56:10;20.17;;;12.55;;
33413;SDS011;60055;41.884;12.534;2023-03-05T08:58:36;19.08;;;11.77;;
33413;SDS011;60055;41.884;12.534;2023-03-05T09:01:02;19.98;;;12.15;;
33413;SDS011;60055;41.884;12.534;2023-03-05T09:03:28;19.33;;;10.82;;
33413;SDS011;60055;41.884;12.534;2023-03-05T09:05:57;25.55;;;11.95;;
33413;SDS011;60055;41.884;12.534;2023-03-05T09:10:53;21.55;;;12.10;;
33413;SDS011;60055;41.884;12.534;2023-03-05T09:13:19;22.60;;;12.52;;
33413;SDS011;60055;41.884;12.534;2023-03-05T09:15:45;24.02;;;11.75;;
33413;SDS011;60055;41.884;12.534;2023-03-05T09:18:17;21.73;;;12.20;;
33413;SDS011;60055;41.884;12.534;2023-03-05T09:20:42;23.90;;;12.18;;
33413;SDS011;60055;41.884;12.534;2023-03-05T09:23:08;25.27;;;12.70;;
33413;SDS011;60055;41.884;12.534;2023-03-05T09:25:34;22.67;;;11.07;;
33413;SDS011;60055;41.884;12.534;2023-03-05T09:27:59;20.00;;;11.13;;
33413;SDS011;60055;41.884;12.534;2023-03-05T09:30:25;17.92;;;10.85;;
33413;SDS011;60055;41.884;12.534;2023-03-05T09:32:50;20.88;;;11.23;;
33413;SDS011;60055;41.884;12.534;2023-03-05T09:35:16;18.90;;;11.52;;
33413;SDS011;60055;41.884;12.534;2023-03-05T09:37:42;33.33;;;19.40;;
33413;SDS011;60055;41.884;12.534;2023-03-05T09:40:11;21.05;;;13.32;;
33413;SDS011;60055;41.884;12.534;2023-03-05T09:42:44;23.52;;;10.77;;
33413;SDS011;60055;41.884;12.534;2023-03-05T09:45:27;27.95;;;10.98;;
33413;SDS011;60055;41.884;12.534;2023-03-05T09:48:05;22.35;;;11.73;;
33413;SDS011;60055;41.884;12.534;2023-03-05T09:50:37;22.13;;;10.35;;
33413;SDS011;60055;41.884;12.534;2023-03-05T09:55:50;24.77;;;11.07;;
33413;SDS011;60055;41.884;12.534;2023-03-05T09:58:40;33.78;;;9.57;;
33413;SDS011;60055;41.884;12.534;2023-03-05T10:06:52;19.05;;;11.20;;
33413;SDS011;60055;41.884;12.534;2023-03-05T10:14:37;23.80;;;11.05;;
33413;SDS011;60055;41.884;12.534;2023-03-05T10:25:29;12.10;;;7.47;;
33413;SDS011;60055;41.884;12.534;2023-03-05T10:28:21;15.73;;;8.05;;
33413;SDS011;60055;41.884;12.534;2023-03-05T10:33:34;17.88;;;7.80;;
33413;SDS011;60055;41.884;12.534;2023-03-05T10:39:38;15.40;;;7.25;;
33413;SDS011;60055;41.884;12.534;2023-03-05T10:42:21;18.35;;;9.15;;
33413;SDS011;60055;41.884;12.534;2023-03-05T10:45:23;17.00;;;9.40;;
33413;SDS011;60055;41.884;12.534;2023-03-05T10:48:02;17.42;;;7.82;;
33413;SDS011;60055;41.884;12.534;2023-03-05T10:50:37;12.20;;;7.43;;
33413;SDS011;60055;41.884;12.534;2023-03-05T10:55:52;13.43;;;7.25;;
33413;SDS011;60055;41.884;12.534;2023-03-05T10:58:20;16.13;;;8.38;;
33413;SDS011;60055;41.884;12.534;2023-03-05T11:03:46;14.30;;;8.18;;
33413;SDS011;60055;41.884;12.534;2023-03-05T11:06:15;13.82;;;6.03;;
33413;SDS011;60055;41.884;12.534;2023-03-05T11:09:14;15.82;;;6.25;;
33413;SDS011;60055;41.884;12.534;2023-03-05T11:11:40;8.98;;;5.35;;
33413;SDS011;60055;41.884;12.534;2023-03-05T11:14:08;11.43;;;6.32;;
33413;SDS011;60055;41.884;12.534;2023-03-05T11:16:57;12.30;;;6.07;;
33413;SDS011;60055;41.884;12.534;2023-03-05T11:22:16;17.85;;;7.90;;
33413;SDS011;60055;41.884;12.534;2023-03-05T11:24:45;18.75;;;7.03;;
33413;SDS011;60055;41.884;12.534;2023-03-05T11:27:34;18.25;;;7.68;;
33413;SDS011;60055;41.884;12.534;2023-03-05T11:30:21;16.52;;;8.20;;
33413;SDS011;60055;41.884;12.534;2023-03-05T11:35:40;17.95;;;7.35;;
33413;SDS011;60055;41.884;12.534;2023-03-05T11:40:43;15.35;;;8.10;;
33413;SDS011;60055;41.884;12.534;2023-03-05T11:43:14;22.60;;;9.80;;
33413;SDS011;60055;41.884;12.534;2023-03-05T11:45:41;14.85;;;7.55;;
33413;SDS011;60055;41.884;12.534;2023-03-05T11:48:14;16.50;;;8.00;;
33413;SDS011;60055;41.884;12.534;2023-03-05T11:50:48;18.73;;;8.15;;
33413;SDS011;60055;41.884;12.534;2023-03-05T11:53:25;17.63;;;8.23;;
33413;SDS011;60055;41.884;12.534;2023-03-05T11:55:55;14.95;;;6.95;;
33413;SDS011;60055;41.884;12.534;2023-03-05T12:01:16;13.13;;;6.90;;
33413;SDS011;60055;41.884;12.534;2023-03-05T12:03:47;14.70;;;6.60;;
33413;SDS011;60055;41.884;12.534;2023-03-05T12:06:16;19.58;;;7.07;;
33413;SDS011;60055;41.884;12.534;2023-03-05T12:17:30;18.08;;;7.55;;
33413;SDS011;60055;41.884;12.534;2023-03-05T12:20:31;16.80;;;7.53;;
33413;SDS011;60055;41.884;12.534;2023-03-05T12:23:12;18.48;;;9.23;;
33413;SDS011;60055;41.884;12.534;2023-03-05T12:28:08;15.65;;;7.10;;
33413;SDS011;60055;41.884;12.534;2023-03-05T12:30:54;13.75;;;6.57;;
33413;SDS011;60055;41.884;12.534;2023-03-05T12:38:41;12.77;;;6.00;;
33413;SDS011;60055;41.884;12.534;2023-03-05T12:46:29;9.27;;;5.28;;
33413;SDS011;60055;41.884;12.534;2023-03-05T12:51:54;10.20;;;5.13;;
33413;SDS011;60055;41.884;12.534;2023-03-05T12:54:36;11.25;;;5.35;;
33413;SDS011;60055;41.884;12.534;2023-03-05T12:57:39;11.48;;;5.40;;
33413;SDS011;60055;41.884;12.534;2023-03-05T13:00:09;11.98;;;5.40;;
33413;SDS011;60055;41.884;12.534;2023-03-05T13:02:45;19.50;;;6.60;;
33413;SDS011;60055;41.884;12.534;2023-03-05T13:05:24;18.42;;;5.65;;
33413;SDS011;60055;41.884;12.534;2023-03-05T13:08:12;10.98;;;5.35;;
33413;SDS011;60055;41.884;12.534;2023-03-05T13:10:42;17.58;;;4.45;;
33413;SDS011;60055;41.884;12.534;2023-03-05T13:13:19;11.48;;;3.95;;
33413;SDS011;60055;41.884;12.534;2023-03-05T13:15:48;13.20;;;4.40;;
33413;SDS011;60055;41.884;12.534;2023-03-05T13:18:28;11.95;;;4.20;;
33413;SDS011;60055;41.884;12.534;2023-03-05T13:21:03;14.85;;;4.63;;
33413;SDS011;60055;41.884;12.534;2023-03-05T13:23:30;15.18;;;4.85;;
33413;SDS011;60055;41.884;12.534;2023-03-05T13:25:59;11.07;;;4.00;;
33413;SDS011;60055;41.884;12.534;2023-03-05T13:28:35;9.38;;;3.97;;
33413;SDS011;60055;41.884;12.534;2023-03-05T13:31:03;11.60;;;4.03;;
33413;SDS011;60055;41.884;12.534;2023-03-05T13:33:36;10.02;;;4.00;;
33413;SDS011;60055;41.884;12.534;2023-03-05T13:36:03;11.95;;;3.67;;
33413;SDS011;60055;41.884;12.534;2023-03-05T13:41:04;10.05;;;4.00;;
33413;SDS011;60055;41.884;12.534;2023-03-05T13:43:32;11.68;;;3.90;;
33413;SDS011;60055;41.884;12.534;2023-03-05T13:45:58;10.95;;;4.00;;
33413;SDS011;60055;41.884;12.534;2023-03-05T13:48:24;9.57;;;3.85;;
33413;SDS011;60055;41.884;12.534;2023-03-05T13:50:55;11.63;;;3.95;;
33413;SDS011;60055;41.884;12.534;2023-03-05T13:53:23;12.23;;;3.60;;
33413;SDS011;60055;41.884;12.534;2023-03-05T14:09:16;13.93;;;3.80;;
33413;SDS011;60055;41.884;12.534;2023-03-05T14:11:50;12.30;;;4.38;;
33413;SDS011;60055;41.884;12.534;2023-03-05T14:14:36;11.93;;;4.00;;
33413;SDS011;60055;41.884;12.534;2023-03-05T14:20:39;11.95;;;4.20;;
33413;SDS011;60055;41.884;12.534;2023-03-05T14:22:44;14.15;;;3.65;;
33413;SDS011;60055;41.884;12.534;2023-03-05T14:25:28;12.57;;;3.38;;
33413;SDS011;60055;41.884;12.534;2023-03-05T14:28:25;11.35;;;3.35;;
33413;SDS011;60055;41.884;12.534;2023-03-05T14:30:53;14.77;;;3.72;;
33413;SDS011;60055;41.884;12.534;2023-03-05T14:33:21;10.30;;;3.13;;
33413;SDS011;60055;41.884;12.534;2023-03-05T14:35:56;11.63;;;3.60;;
33413;SDS011;60055;41.884;12.534;2023-03-05T14:38:27;14.88;;;4.03;;
33413;SDS011;60055;41.884;12.534;2023-03-05T14:40:55;10.93;;;3.60;;
33413;SDS011;60055;41.884;12.534;2023-03-05T14:43:21;13.05;;;3.95;;
33413;SDS011;60055;41.884;12.534;2023-03-05T14:45:47;11.23;;;3.22;;
33413;SDS011;60055;41.884;12.534;2023-03-05T14:48:14;9.55;;;3.05;;
33413;SDS011;60055;41.884;12.534;2023-03-05T14:53:18;9.90;;;3.00;;
33413;SDS011;60055;41.884;12.534;2023-03-05T14:55:47;13.45;;;3.42;;
33413;SDS011;60055;41.884;12.534;2023-03-05T14:58:20;10.52;;;3.70;;
33413;SDS011;60055;41.884;12.534;2023-03-05T15:00:49;10.88;;;3.58;;
33413;SDS011;60055;41.884;12.534;2023-03-05T15:03:15;13.70;;;3.70;;
33413;SDS011;60055;41.884;12.534;2023-03-05T15:05:45;9.05;;;2.97;;
33413;SDS011;60055;41.884;12.534;2023-03-05T15:08:23;14.10;;;3.17;;
33413;SDS011;60055;41.884;12.534;2023-03-05T15:10:51;14.35;;;3.40;;
33413;SDS011;60055;41.884;12.534;2023-03-05T15:13:17;14.80;;;3.58;;
33413;SDS011;60055;41.884;12.534;2023-03-05T15:15:44;9.93;;;3.35;;
33413;SDS011;60055;41.884;12.534;2023-03-05T15:18:15;11.23;;;3.00;;
33413;SDS011;60055;41.884;12.534;2023-03-05T15:20:43;9.60;;;3.10;;
33413;SDS011;60055;41.884;12.534;2023-03-05T15:23:09;8.60;;;3.10;;
33413;SDS011;60055;41.884;12.534;2023-03-05T15:25:36;11.00;;;3.30;;
33413;SDS011;60055;41.884;12.534;2023-03-05T15:28:02;10.13;;;3.30;;
33413;SDS011;60055;41.884;12.534;2023-03-05T15:30:29;12.00;;;3.72;;
33413;SDS011;60055;41.884;12.534;2023-03-05T15:32:56;10.57;;;3.25;;
33413;SDS011;60055;41.884;12.534;2023-03-05T15:35:24;11.82;;;3.50;;
33413;SDS011;60055;41.884;12.534;2023-03-05T15:37:50;8.38;;;3.65;;
33413;SDS011;60055;41.884;12.534;2023-03-05T15:40:16;9.77;;;3.08;;
33413;SDS011;60055;41.884;12.534;2023-03-05T15:42:42;10.23;;;2.92;;
33413;SDS011;60055;41.884;12.534;2023-03-05T15:45:08;9.25;;;2.80;;
33413;SDS011;60055;41.884;12.534;2023-03-05T15:47:34;9.60;;;2.80;;
33413;SDS011;60055;41.884;12.534;2023-03-05T15:50:01;8.23;;;2.90;;
33413;SDS011;60055;41.884;12.534;2023-03-05T15:52:26;11.00;;;2.97;;
33413;SDS011;60055;41.884;12.534;2023-03-05T15:54:52;8.02;;;2.63;;
33413;SDS011;60055;41.884;12.534;2023-03-05T15:57:18;9.18;;;3.17;;
33413;SDS011;60055;41.884;12.534;2023-03-05T15:59:47;12.43;;;2.78;;
33413;SDS011;60055;41.884;12.534;2023-03-05T16:02:13;15.77;;;3.38;;
33413;SDS011;60055;41.884;12.534;2023-03-05T16:04:40;12.25;;;2.97;;
33413;SDS011;60055;41.884;12.534;2023-03-05T16:07:06;13.93;;;3.25;;
33413;SDS011;60055;41.884;12.534;2023-03-05T16:09:34;7.78;;;3.50;;
33413;SDS011;60055;41.884;12.534;2023-03-05T16:12:02;11.02;;;3.00;;
33413;SDS011;60055;41.884;12.534;2023-03-05T16:14:32;12.85;;;3.33;;
33413;SDS011;60055;41.884;12.534;2023-03-05T16:16:58;12.15;;;3.85;;
33413;SDS011;60055;41.884;12.534;2023-03-05T16:19:27;12.60;;;3.97;;
33413;SDS011;60055;41.884;12.534;2023-03-05T16:21:54;9.00;;;3.45;;
33413;SDS011;60055;41.884;12.534;2023-03-05T16:24:20;9.05;;;3.70;;
33413;SDS011;60055;41.884;12.534;2023-03-05T16:26:46;11.43;;;3.63;;
33413;SDS011;60055;41.884;12.534;2023-03-05T16:29:11;12.30;;;3.22;;